sensor_id;sensor_type;location;lat;lon;timestamp;P1;durP1;ratioP1;P2;durP2;ratioP2
74293;SDS011;64044;59.904;10.738;2022-10-17T00:01:08;2.35;;;0.60;;
74293;SDS011;64044;59.904;10.738;2022-10-17T00:03:34;3.88;;;0.60;;
74293;SDS011;64044;59.904;10.738;2022-10-17T00:06:10;1.83;;;0.40;;
74293;SDS011;64044;59.904;10.738;2022-10-17T00:08:38;1.20;;;0.50;;
74293;SDS011;64044;59.904;10.738;2022-10-17T00:11:06;2.42;;;0.50;;
74293;SDS011;64044;59.904;10.738;2022-10-17T00:13:34;2.33;;;0.40;;
74293;SDS011;64044;59.904;10.738;2022-10-17T00:15:59;1.58;;;0.73;;
74293;SDS011;64044;59.904;10.738;2022-10-17T00:18:25;2.70;;;0.75;;
74293;SDS011;64044;59.904;10.738;2022-10-17T00:20:51;2.65;;;0.65;;
74293;SDS011;64044;59.904;10.738;2022-10-17T00:23:17;1.15;;;0.22;;
74293;SDS011;64044;59.904;10.738;2022-10-17T00:25:42;3.15;;;0.43;;
74293;SDS011;64044;59.904;10.738;2022-10-17T00:28:09;0.63;;;0.30;;
74293;SDS011;64044;59.904;10.738;2022-10-17T00:30:39;3.67;;;0.73;;
74293;SDS011;64044;59.904;10.738;2022-10-17T00:33:04;1.75;;;0.30;;
74293;SDS011;64044;59.904;10.738;2022-10-17T00:35:30;1.75;;;0.45;;
74293;SDS011;64044;59.904;10.738;2022-10-17T00:37:56;3.33;;;0.85;;
74293;SDS011;64044;59.904;10.738;2022-10-17T00:40:22;3.47;;;0.47;;
74293;SDS011;64044;59.904;10.738;2022-10-17T00:42:47;2.88;;;0.63;;
74293;SDS011;64044;59.904;10.738;2022-10-17T00:47:54;2.58;;;0.60;;
74293;SDS011;64044;59.904;10.738;2022-10-17T00:50:25;1.15;;;0.43;;
74293;SDS011;64044;59.904;10.738;2022-10-17T00:52:51;2.78;;;0.32;;
74293;SDS011;64044;59.904;10.738;2022-10-17T00:55:22;1.25;;;0.30;;
74293;SDS011;64044;59.904;10.738;2022-10-17T00:57:53;1.40;;;0.50;;
74293;SDS011;64044;59.904;10.738;2022-10-17T01:00:20;1.48;;;0.40;;
74293;SDS011;64044;59.904;10.738;2022-10-17T01:02:46;1.83;;;0.55;;
74293;SDS011;64044;59.904;10.738;2022-10-17T01:05:12;1.08;;;0.32;;
74293;SDS011;64044;59.904;10.738;2022-10-17T01:07:39;1.23;;;0.40;;
74293;SDS011;64044;59.904;10.738;2022-10-17T01:10:06;3.17;;;0.70;;
74293;SDS011;64044;59.904;10.738;2022-10-17T01:28:52;3.35;;;0.10;;
74293;SDS011;64044;59.904;10.738;2022-10-17T01:31:28;1.35;;;0.30;;
74293;SDS011;64044;59.904;10.738;2022-10-17T01:34:02;2.33;;;0.40;;
74293;SDS011;64044;59.904;10.738;2022-10-17T01:36:49;1.67;;;0.30;;
74293;SDS011;64044;59.904;10.738;2022-10-17T01:45:09;0.90;;;0.40;;
74293;SDS011;64044;59.904;10.738;2022-10-17T01:47:43;0.60;;;0.30;;
74293;SDS011;64044;59.904;10.738;2022-10-17T01:50:23;1.85;;;0.50;;
74293;SDS011;64044;59.904;10.738;2022-10-17T01:52:56;1.30;;;0.32;;
74293;SDS011;64044;59.904;10.738;2022-10-17T01:55:35;0.68;;;0.43;;
74293;SDS011;64044;59.904;10.738;2022-10-17T01:58:05;1.20;;;0.38;;
74293;SDS011;64044;59.904;10.738;2022-10-17T02:00:43;2.45;;;0.70;;
74293;SDS011;64044;59.904;10.738;2022-10-17T02:03:12;0.90;;;0.47;;
74293;SDS011;64044;59.904;10.738;2022-10-17T02:05:40;1.05;;;0.32;;
74293;SDS011;64044;59.904;10.738;2022-10-17T02:11:18;0.82;;;0.43;;
74293;SDS011;64044;59.904;10.738;2022-10-17T02:19:40;1.05;;;0.40;;
74293;SDS011;64044;59.904;10.738;2022-10-17T02:22:17;1.98;;;0.50;;
74293;SDS011;64044;59.904;10.738;2022-10-17T02:30:14;1.75;;;0.63;;
74293;SDS011;64044;59.904;10.738;2022-10-17T02:32:57;1.48;;;0.80;;
74293;SDS011;64044;59.904;10.738;2022-10-17T02:35:28;1.70;;;0.63;;
74293;SDS011;64044;59.904;10.738;2022-10-17T02:37:57;3.93;;;1.23;;
74293;SDS011;64044;59.904;10.738;2022-10-17T02:40:24;4.25;;;0.90;;
74293;SDS011;64044;59.904;10.738;2022-10-17T02:42:53;2.53;;;1.08;;
74293;SDS011;64044;59.904;10.738;2022-10-17T02:45:20;2.05;;;0.65;;
74293;SDS011;64044;59.904;10.738;2022-10-17T02:50:27;2.22;;;0.63;;
74293;SDS011;64044;59.904;10.738;2022-10-17T02:53:19;1.65;;;0.80;;
74293;SDS011;64044;59.904;10.738;2022-10-17T02:56:10;1.88;;;0.73;;
74293;SDS011;64044;59.904;10.738;2022-10-17T02:58:41;2.63;;;1.00;;
74293;SDS011;64044;59.904;10.738;2022-10-17T03:01:10;11.90;;;1.58;;
74293;SDS011;64044;59.904;10.738;2022-10-17T03:03:37;1.58;;;0.60;;
74293;SDS011;64044;59.904;10.738;2022-10-17T03:06:03;2.78;;;0.70;;
74293;SDS011;64044;59.904;10.738;2022-10-17T03:08:28;3.35;;;1.45;;
74293;SDS011;64044;59.904;10.738;2022-10-17T03:10:54;1.02;;;0.57;;
74293;SDS011;64044;59.904;10.738;2022-10-17T03:13:20;2.80;;;0.95;;
74293;SDS011;64044;59.904;10.738;2022-10-17T03:15:45;1.70;;;0.50;;
74293;SDS011;64044;59.904;10.738;2022-10-17T03:18:11;1.55;;;0.65;;
74293;SDS011;64044;59.904;10.738;2022-10-17T03:20:37;3.67;;;0.60;;
74293;SDS011;64044;59.904;10.738;2022-10-17T03:23:02;1.73;;;0.80;;
74293;SDS011;64044;59.904;10.738;2022-10-17T03:25:28;2.45;;;0.60;;
74293;SDS011;64044;59.904;10.738;2022-10-17T03:27:54;2.97;;;0.60;;
74293;SDS011;64044;59.904;10.738;2022-10-17T03:30:22;2.45;;;0.80;;
74293;SDS011;64044;59.904;10.738;2022-10-17T03:32:48;2.65;;;0.70;;
74293;SDS011;64044;59.904;10.738;2022-10-17T03:35:13;1.77;;;0.65;;
74293;SDS011;64044;59.904;10.738;2022-10-17T03:37:39;2.35;;;1.25;;
74293;SDS011;64044;59.904;10.738;2022-10-17T03:40:05;1.23;;;0.70;;
74293;SDS011;64044;59.904;10.738;2022-10-17T03:42:30;1.27;;;0.50;;
74293;SDS011;64044;59.904;10.738;2022-10-17T03:44:56;3.88;;;0.60;;
74293;SDS011;64044;59.904;10.738;2022-10-17T03:47:22;1.90;;;0.60;;
74293;SDS011;64044;59.904;10.738;2022-10-17T03:49:47;2.63;;;0.60;;
74293;SDS011;64044;59.904;10.738;2022-10-17T03:52:13;1.45;;;0.32;;
74293;SDS011;64044;59.904;10.738;2022-10-17T03:54:39;6.32;;;1.05;;
74293;SDS011;64044;59.904;10.738;2022-10-17T03:57:05;0.98;;;0.40;;
74293;SDS011;64044;59.904;10.738;2022-10-17T03:59:30;3.53;;;0.43;;
74293;SDS011;64044;59.904;10.738;2022-10-17T04:01:56;1.65;;;0.50;;
74293;SDS011;64044;59.904;10.738;2022-10-17T04:04:22;2.17;;;0.98;;
74293;SDS011;64044;59.904;10.738;2022-10-17T04:06:47;1.75;;;0.70;;
74293;SDS011;64044;59.904;10.738;2022-10-17T04:09:13;2.60;;;0.63;;
74293;SDS011;64044;59.904;10.738;2022-10-17T04:11:38;1.60;;;0.70;;
74293;SDS011;64044;59.904;10.738;2022-10-17T04:14:04;2.30;;;0.73;;
74293;SDS011;64044;59.904;10.738;2022-10-17T04:16:30;3.05;;;0.85;;
74293;SDS011;64044;59.904;10.738;2022-10-17T04:18:56;2.72;;;0.80;;
74293;SDS011;64044;59.904;10.738;2022-10-17T04:21:24;2.33;;;0.80;;
74293;SDS011;64044;59.904;10.738;2022-10-17T04:23:54;2.58;;;0.82;;
74293;SDS011;64044;59.904;10.738;2022-10-17T04:26:21;5.65;;;0.57;;
74293;SDS011;64044;59.904;10.738;2022-10-17T04:28:48;6.63;;;1.42;;
74293;SDS011;64044;59.904;10.738;2022-10-17T04:31:14;1.88;;;0.77;;
74293;SDS011;64044;59.904;10.738;2022-10-17T04:33:40;4.28;;;1.73;;
74293;SDS011;64044;59.904;10.738;2022-10-17T04:36:10;2.88;;;0.85;;
74293;SDS011;64044;59.904;10.738;2022-10-17T04:38:37;0.73;;;0.55;;
74293;SDS011;64044;59.904;10.738;2022-10-17T04:41:04;1.70;;;0.85;;
74293;SDS011;64044;59.904;10.738;2022-10-17T04:43:32;3.33;;;1.10;;
74293;SDS011;64044;59.904;10.738;2022-10-17T04:45:59;4.15;;;1.80;;
74293;SDS011;64044;59.904;10.738;2022-10-17T04:48:27;2.13;;;1.60;;
74293;SDS011;64044;59.904;10.738;2022-10-17T04:53:19;4.75;;;1.23;;
74293;SDS011;64044;59.904;10.738;2022-10-17T04:55:45;3.72;;;1.40;;
74293;SDS011;64044;59.904;10.738;2022-10-17T04:58:11;1.42;;;0.88;;
74293;SDS011;64044;59.904;10.738;2022-10-17T05:00:37;3.45;;;1.23;;
74293;SDS011;64044;59.904;10.738;2022-10-17T05:03:02;2.65;;;1.00;;
74293;SDS011;64044;59.904;10.738;2022-10-17T05:05:28;3.88;;;1.15;;
74293;SDS011;64044;59.904;10.738;2022-10-17T05:07:54;5.88;;;1.00;;
74293;SDS011;64044;59.904;10.738;2022-10-17T05:10:19;2.53;;;0.88;;
74293;SDS011;64044;59.904;10.738;2022-10-17T05:12:46;4.43;;;1.60;;
74293;SDS011;64044;59.904;10.738;2022-10-17T05:15:12;4.03;;;1.00;;
74293;SDS011;64044;59.904;10.738;2022-10-17T05:17:38;1.45;;;1.20;;
74293;SDS011;64044;59.904;10.738;2022-10-17T05:20:03;3.95;;;1.70;;
74293;SDS011;64044;59.904;10.738;2022-10-17T05:22:29;3.17;;;1.80;;
74293;SDS011;64044;59.904;10.738;2022-10-17T05:24:55;4.00;;;1.75;;
74293;SDS011;64044;59.904;10.738;2022-10-17T05:27:21;4.13;;;2.00;;
74293;SDS011;64044;59.904;10.738;2022-10-17T05:29:46;4.10;;;1.73;;
74293;SDS011;64044;59.904;10.738;2022-10-17T05:32:12;5.97;;;1.30;;
74293;SDS011;64044;59.904;10.738;2022-10-17T05:34:39;4.38;;;1.20;;
74293;SDS011;64044;59.904;10.738;2022-10-17T05:37:05;2.47;;;1.00;;
74293;SDS011;64044;59.904;10.738;2022-10-17T05:39:30;3.45;;;1.20;;
74293;SDS011;64044;59.904;10.738;2022-10-17T05:41:56;3.05;;;0.68;;
74293;SDS011;64044;59.904;10.738;2022-10-17T05:44:22;3.13;;;0.95;;
74293;SDS011;64044;59.904;10.738;2022-10-17T05:46:48;6.20;;;1.67;;
74293;SDS011;64044;59.904;10.738;2022-10-17T05:49:13;3.20;;;0.77;;
74293;SDS011;64044;59.904;10.738;2022-10-17T05:51:39;2.13;;;1.10;;
74293;SDS011;64044;59.904;10.738;2022-10-17T05:54:05;3.63;;;1.20;;
74293;SDS011;64044;59.904;10.738;2022-10-17T05:56:31;5.15;;;1.17;;
74293;SDS011;64044;59.904;10.738;2022-10-17T05:58:57;2.67;;;1.00;;
74293;SDS011;64044;59.904;10.738;2022-10-17T06:01:23;4.68;;;1.70;;
74293;SDS011;64044;59.904;10.738;2022-10-17T06:03:49;3.80;;;1.27;;
74293;SDS011;64044;59.904;10.738;2022-10-17T06:06:15;2.33;;;0.82;;
74293;SDS011;64044;59.904;10.738;2022-10-17T06:08:41;4.03;;;0.88;;
74293;SDS011;64044;59.904;10.738;2022-10-17T06:11:07;3.67;;;1.10;;
74293;SDS011;64044;59.904;10.738;2022-10-17T06:13:33;3.72;;;1.20;;
74293;SDS011;64044;59.904;10.738;2022-10-17T06:15:59;2.38;;;1.38;;
74293;SDS011;64044;59.904;10.738;2022-10-17T06:18:24;4.38;;;1.90;;
74293;SDS011;64044;59.904;10.738;2022-10-17T06:20:50;2.60;;;1.15;;
74293;SDS011;64044;59.904;10.738;2022-10-17T06:23:16;7.63;;;1.55;;
74293;SDS011;64044;59.904;10.738;2022-10-17T06:25:42;5.72;;;1.80;;
74293;SDS011;64044;59.904;10.738;2022-10-17T06:28:08;2.85;;;1.60;;
74293;SDS011;64044;59.904;10.738;2022-10-17T06:30:36;4.93;;;2.00;;
74293;SDS011;64044;59.904;10.738;2022-10-17T06:33:04;8.25;;;2.42;;
74293;SDS011;64044;59.904;10.738;2022-10-17T06:35:30;5.97;;;1.67;;
74293;SDS011;64044;59.904;10.738;2022-10-17T06:37:56;5.40;;;1.88;;
74293;SDS011;64044;59.904;10.738;2022-10-17T06:40:21;4.72;;;2.10;;
74293;SDS011;64044;59.904;10.738;2022-10-17T06:42:47;4.80;;;2.70;;
74293;SDS011;64044;59.904;10.738;2022-10-17T06:45:13;6.07;;;2.88;;
74293;SDS011;64044;59.904;10.738;2022-10-17T06:47:39;6.70;;;2.20;;
74293;SDS011;64044;59.904;10.738;2022-10-17T06:50:04;5.93;;;2.28;;
74293;SDS011;64044;59.904;10.738;2022-10-17T06:52:30;2.83;;;1.58;;
74293;SDS011;64044;59.904;10.738;2022-10-17T06:54:56;4.35;;;2.00;;
74293;SDS011;64044;59.904;10.738;2022-10-17T06:57:21;2.95;;;1.48;;
74293;SDS011;64044;59.904;10.738;2022-10-17T06:59:47;6.07;;;1.42;;
74293;SDS011;64044;59.904;10.738;2022-10-17T07:02:13;9.32;;;2.08;;
74293;SDS011;64044;59.904;10.738;2022-10-17T07:04:38;5.45;;;1.88;;
74293;SDS011;64044;59.904;10.738;2022-10-17T07:07:04;6.03;;;2.20;;
74293;SDS011;64044;59.904;10.738;2022-10-17T07:09:30;4.22;;;1.73;;
74293;SDS011;64044;59.904;10.738;2022-10-17T07:11:57;4.53;;;2.15;;
74293;SDS011;64044;59.904;10.738;2022-10-17T07:14:23;7.78;;;1.80;;
74293;SDS011;64044;59.904;10.738;2022-10-17T07:16:55;6.20;;;2.40;;
74293;SDS011;64044;59.904;10.738;2022-10-17T07:19:25;4.30;;;1.70;;
74293;SDS011;64044;59.904;10.738;2022-10-17T07:21:53;5.43;;;2.00;;
74293;SDS011;64044;59.904;10.738;2022-10-17T07:24:19;6.05;;;2.28;;
74293;SDS011;64044;59.904;10.738;2022-10-17T07:26:45;5.60;;;2.17;;
74293;SDS011;64044;59.904;10.738;2022-10-17T07:29:10;8.35;;;2.42;;
74293;SDS011;64044;59.904;10.738;2022-10-17T07:31:36;11.20;;;3.05;;
74293;SDS011;64044;59.904;10.738;2022-10-17T07:34:02;9.05;;;3.03;;
74293;SDS011;64044;59.904;10.738;2022-10-17T07:36:27;7.78;;;3.42;;
74293;SDS011;64044;59.904;10.738;2022-10-17T07:38:53;7.57;;;3.38;;
74293;SDS011;64044;59.904;10.738;2022-10-17T07:41:19;9.73;;;3.03;;
74293;SDS011;64044;59.904;10.738;2022-10-17T07:43:44;9.10;;;2.70;;
74293;SDS011;64044;59.904;10.738;2022-10-17T07:46:10;9.18;;;2.92;;
74293;SDS011;64044;59.904;10.738;2022-10-17T07:48:37;7.20;;;2.15;;
74293;SDS011;64044;59.904;10.738;2022-10-17T07:51:06;5.07;;;2.13;;
74293;SDS011;64044;59.904;10.738;2022-10-17T07:53:34;4.22;;;2.15;;
74293;SDS011;64044;59.904;10.738;2022-10-17T07:56:05;12.77;;;2.63;;
74293;SDS011;64044;59.904;10.738;2022-10-17T07:58:32;5.55;;;2.58;;
74293;SDS011;64044;59.904;10.738;2022-10-17T08:01:01;9.88;;;2.90;;
74293;SDS011;64044;59.904;10.738;2022-10-17T08:03:28;8.95;;;2.30;;
74293;SDS011;64044;59.904;10.738;2022-10-17T08:06:00;7.97;;;2.58;;
74293;SDS011;64044;59.904;10.738;2022-10-17T08:08:26;6.25;;;2.08;;
74293;SDS011;64044;59.904;10.738;2022-10-17T08:10:53;5.38;;;2.20;;
74293;SDS011;64044;59.904;10.738;2022-10-17T08:13:21;8.10;;;2.80;;
74293;SDS011;64044;59.904;10.738;2022-10-17T08:15:47;6.97;;;2.38;;
74293;SDS011;64044;59.904;10.738;2022-10-17T08:18:13;12.25;;;2.00;;
74293;SDS011;64044;59.904;10.738;2022-10-17T08:20:40;5.18;;;1.95;;
74293;SDS011;64044;59.904;10.738;2022-10-17T08:23:06;10.25;;;2.22;;
74293;SDS011;64044;59.904;10.738;2022-10-17T08:25:31;6.07;;;1.95;;
74293;SDS011;64044;59.904;10.738;2022-10-17T08:27:57;10.00;;;2.50;;
74293;SDS011;64044;59.904;10.738;2022-10-17T08:30:23;11.63;;;2.40;;
74293;SDS011;64044;59.904;10.738;2022-10-17T08:32:49;9.98;;;1.95;;
74293;SDS011;64044;59.904;10.738;2022-10-17T08:35:15;6.45;;;2.50;;
74293;SDS011;64044;59.904;10.738;2022-10-17T08:37:40;9.07;;;2.63;;
74293;SDS011;64044;59.904;10.738;2022-10-17T08:40:06;8.68;;;1.52;;
74293;SDS011;64044;59.904;10.738;2022-10-17T08:45:41;8.07;;;2.50;;
74293;SDS011;64044;59.904;10.738;2022-10-17T08:48:24;5.25;;;1.63;;
74293;SDS011;64044;59.904;10.738;2022-10-17T08:53:32;6.47;;;2.05;;
74293;SDS011;64044;59.904;10.738;2022-10-17T08:56:16;5.63;;;1.70;;
74293;SDS011;64044;59.904;10.738;2022-10-17T08:58:59;5.63;;;1.70;;
74293;SDS011;64044;59.904;10.738;2022-10-17T09:01:31;8.00;;;2.40;;
74293;SDS011;64044;59.904;10.738;2022-10-17T09:04:37;8.40;;;2.42;;
74293;SDS011;64044;59.904;10.738;2022-10-17T09:15:07;8.82;;;1.92;;
74293;SDS011;64044;59.904;10.738;2022-10-17T09:17:57;5.68;;;1.67;;
74293;SDS011;64044;59.904;10.738;2022-10-17T09:20:50;5.82;;;1.92;;
74293;SDS011;64044;59.904;10.738;2022-10-17T09:23:20;10.95;;;2.47;;
74293;SDS011;64044;59.904;10.738;2022-10-17T09:25:49;6.68;;;1.50;;
74293;SDS011;64044;59.904;10.738;2022-10-17T09:30:58;5.38;;;1.67;;
74293;SDS011;64044;59.904;10.738;2022-10-17T09:36:04;9.68;;;1.98;;
74293;SDS011;64044;59.904;10.738;2022-10-17T09:38:42;4.03;;;1.58;;
74293;SDS011;64044;59.904;10.738;2022-10-17T09:49:31;4.65;;;2.15;;
74293;SDS011;64044;59.904;10.738;2022-10-17T09:52:43;4.63;;;1.55;;
74293;SDS011;64044;59.904;10.738;2022-10-17T09:55:05;8.07;;;2.25;;
74293;SDS011;64044;59.904;10.738;2022-10-17T09:57:57;5.28;;;1.70;;
74293;SDS011;64044;59.904;10.738;2022-10-17T10:00:35;6.50;;;2.15;;
74293;SDS011;64044;59.904;10.738;2022-10-17T10:03:10;4.55;;;1.33;;
74293;SDS011;64044;59.904;10.738;2022-10-17T10:06:19;4.10;;;1.30;;
74293;SDS011;64044;59.904;10.738;2022-10-17T10:09:19;2.90;;;1.30;;
74293;SDS011;64044;59.904;10.738;2022-10-17T10:11:49;5.85;;;1.73;;
74293;SDS011;64044;59.904;10.738;2022-10-17T10:14:24;5.43;;;2.25;;
74293;SDS011;64044;59.904;10.738;2022-10-17T10:17:03;6.90;;;2.38;;
74293;SDS011;64044;59.904;10.738;2022-10-17T10:19:34;7.10;;;2.05;;
74293;SDS011;64044;59.904;10.738;2022-10-17T10:22:02;6.97;;;2.30;;
74293;SDS011;64044;59.904;10.738;2022-10-17T10:24:30;4.80;;;1.90;;
74293;SDS011;64044;59.904;10.738;2022-10-17T10:27:00;3.95;;;1.90;;
74293;SDS011;64044;59.904;10.738;2022-10-17T10:29:29;6.18;;;2.83;;
74293;SDS011;64044;59.904;10.738;2022-10-17T10:32:32;5.07;;;1.80;;
74293;SDS011;64044;59.904;10.738;2022-10-17T10:37:48;6.93;;;1.83;;
74293;SDS011;64044;59.904;10.738;2022-10-17T10:40:20;2.95;;;1.52;;
74293;SDS011;64044;59.904;10.738;2022-10-17T10:42:52;4.72;;;1.30;;
74293;SDS011;64044;59.904;10.738;2022-10-17T10:45:25;3.28;;;1.20;;
74293;SDS011;64044;59.904;10.738;2022-10-17T10:47:59;4.85;;;1.40;;
74293;SDS011;64044;59.904;10.738;2022-10-17T10:50:31;3.90;;;1.33;;
74293;SDS011;64044;59.904;10.738;2022-10-17T10:59:00;3.58;;;1.10;;
74293;SDS011;64044;59.904;10.738;2022-10-17T11:01:22;3.63;;;1.20;;
74293;SDS011;64044;59.904;10.738;2022-10-17T11:04:26;4.97;;;1.00;;
74293;SDS011;64044;59.904;10.738;2022-10-17T11:09:44;2.13;;;1.13;;
74293;SDS011;64044;59.904;10.738;2022-10-17T11:26:20;7.05;;;2.35;;
74293;SDS011;64044;59.904;10.738;2022-10-17T11:28:54;5.80;;;1.58;;
74293;SDS011;64044;59.904;10.738;2022-10-17T11:31:22;10.63;;;1.50;;
74293;SDS011;64044;59.904;10.738;2022-10-17T11:33:56;4.53;;;1.90;;
74293;SDS011;64044;59.904;10.738;2022-10-17T11:36:25;5.57;;;2.22;;
74293;SDS011;64044;59.904;10.738;2022-10-17T11:39:02;5.20;;;2.13;;
74293;SDS011;64044;59.904;10.738;2022-10-17T11:47:10;4.43;;;1.55;;
74293;SDS011;64044;59.904;10.738;2022-10-17T11:49:46;3.38;;;1.40;;
74293;SDS011;64044;59.904;10.738;2022-10-17T11:52:51;5.88;;;1.48;;
74293;SDS011;64044;59.904;10.738;2022-10-17T11:55:18;3.30;;;1.40;;
74293;SDS011;64044;59.904;10.738;2022-10-17T12:12:10;5.55;;;1.80;;
74293;SDS011;64044;59.904;10.738;2022-10-17T12:17:27;3.92;;;1.73;;
74293;SDS011;64044;59.904;10.738;2022-10-17T12:22:51;5.50;;;2.30;;
74293;SDS011;64044;59.904;10.738;2022-10-17T12:25:18;6.85;;;2.60;;
74293;SDS011;64044;59.904;10.738;2022-10-17T12:27:46;4.93;;;2.40;;
74293;SDS011;64044;59.904;10.738;2022-10-17T12:35:49;3.58;;;1.90;;
74293;SDS011;64044;59.904;10.738;2022-10-17T12:38:35;4.15;;;1.90;;
74293;SDS011;64044;59.904;10.738;2022-10-17T12:41:01;5.25;;;1.88;;
74293;SDS011;64044;59.904;10.738;2022-10-17T12:45:58;6.32;;;2.00;;
74293;SDS011;64044;59.904;10.738;2022-10-17T12:51:10;3.28;;;1.73;;
74293;SDS011;64044;59.904;10.738;2022-10-17T12:53:43;7.47;;;2.45;;
74293;SDS011;64044;59.904;10.738;2022-10-17T12:56:37;6.85;;;1.90;;
74293;SDS011;64044;59.904;10.738;2022-10-17T13:01:37;5.93;;;1.50;;
74293;SDS011;64044;59.904;10.738;2022-10-17T13:04:08;6.45;;;1.58;;
74293;SDS011;64044;59.904;10.738;2022-10-17T13:06:35;3.05;;;1.10;;
74293;SDS011;64044;59.904;10.738;2022-10-17T13:09:14;2.63;;;1.67;;
74293;SDS011;64044;59.904;10.738;2022-10-17T13:11:56;3.20;;;1.70;;
74293;SDS011;64044;59.904;10.738;2022-10-17T13:14:24;4.18;;;1.58;;
74293;SDS011;64044;59.904;10.738;2022-10-17T13:16:56;4.35;;;1.45;;
74293;SDS011;64044;59.904;10.738;2022-10-17T13:19:30;3.05;;;1.48;;
74293;SDS011;64044;59.904;10.738;2022-10-17T13:22:09;2.67;;;1.20;;
74293;SDS011;64044;59.904;10.738;2022-10-17T13:25:13;4.03;;;1.40;;
74293;SDS011;64044;59.904;10.738;2022-10-17T13:27:40;5.53;;;1.90;;
74293;SDS011;64044;59.904;10.738;2022-10-17T13:32:55;9.68;;;3.30;;
74293;SDS011;64044;59.904;10.738;2022-10-17T13:35:21;18.88;;;5.20;;
74293;SDS011;64044;59.904;10.738;2022-10-17T13:37:51;8.77;;;3.93;;
74293;SDS011;64044;59.904;10.738;2022-10-17T13:40:23;8.88;;;2.78;;
74293;SDS011;64044;59.904;10.738;2022-10-17T13:42:51;13.43;;;5.03;;
74293;SDS011;64044;59.904;10.738;2022-10-17T13:45:23;6.35;;;2.97;;
74293;SDS011;64044;59.904;10.738;2022-10-17T13:47:50;5.85;;;2.00;;
74293;SDS011;64044;59.904;10.738;2022-10-17T13:56:02;8.48;;;3.30;;
74293;SDS011;64044;59.904;10.738;2022-10-17T13:58:30;16.25;;;4.45;;
74293;SDS011;64044;59.904;10.738;2022-10-17T14:01:04;24.42;;;6.88;;
74293;SDS011;64044;59.904;10.738;2022-10-17T14:03:30;13.77;;;4.60;;
74293;SDS011;64044;59.904;10.738;2022-10-17T14:08:57;11.48;;;3.53;;
74293;SDS011;64044;59.904;10.738;2022-10-17T14:14:01;8.55;;;3.05;;
74293;SDS011;64044;59.904;10.738;2022-10-17T14:16:36;5.85;;;2.28;;
74293;SDS011;64044;59.904;10.738;2022-10-17T14:19:04;6.10;;;1.73;;
74293;SDS011;64044;59.904;10.738;2022-10-17T14:21:38;4.90;;;1.70;;
74293;SDS011;64044;59.904;10.738;2022-10-17T14:24:11;4.25;;;1.67;;
74293;SDS011;64044;59.904;10.738;2022-10-17T14:26:47;4.97;;;1.83;;
74293;SDS011;64044;59.904;10.738;2022-10-17T14:29:20;4.22;;;1.90;;
74293;SDS011;64044;59.904;10.738;2022-10-17T14:31:48;4.45;;;2.28;;
74293;SDS011;64044;59.904;10.738;2022-10-17T14:34:23;5.75;;;2.15;;
74293;SDS011;64044;59.904;10.738;2022-10-17T14:36:52;5.85;;;2.38;;
74293;SDS011;64044;59.904;10.738;2022-10-17T14:39:20;4.45;;;2.17;;
74293;SDS011;64044;59.904;10.738;2022-10-17T14:41:47;6.07;;;2.42;;
74293;SDS011;64044;59.904;10.738;2022-10-17T14:46:45;4.57;;;2.13;;
74293;SDS011;64044;59.904;10.738;2022-10-17T14:49:48;4.18;;;2.40;;
74293;SDS011;64044;59.904;10.738;2022-10-17T14:54:52;2.83;;;1.85;;
74293;SDS011;64044;59.904;10.738;2022-10-17T14:59:50;3.78;;;1.95;;
74293;SDS011;64044;59.904;10.738;2022-10-17T15:02:16;2.55;;;1.70;;
74293;SDS011;64044;59.904;10.738;2022-10-17T15:04:42;3.35;;;1.60;;
74293;SDS011;64044;59.904;10.738;2022-10-17T15:07:16;2.42;;;1.73;;
74293;SDS011;64044;59.904;10.738;2022-10-17T15:09:43;2.05;;;1.50;;
74293;SDS011;64044;59.904;10.738;2022-10-17T15:12:12;2.45;;;1.55;;
74293;SDS011;64044;59.904;10.738;2022-10-17T15:14:43;3.03;;;1.73;;
74293;SDS011;64044;59.904;10.738;2022-10-17T15:17:10;4.18;;;2.10;;
74293;SDS011;64044;59.904;10.738;2022-10-17T15:19:42;2.00;;;1.42;;
74293;SDS011;64044;59.904;10.738;2022-10-17T15:22:08;4.63;;;1.60;;
74293;SDS011;64044;59.904;10.738;2022-10-17T15:24:33;2.80;;;1.83;;
74293;SDS011;64044;59.904;10.738;2022-10-17T15:26:59;3.45;;;2.08;;
74293;SDS011;64044;59.904;10.738;2022-10-17T15:29:25;3.95;;;1.50;;
74293;SDS011;64044;59.904;10.738;2022-10-17T15:31:50;3.15;;;1.70;;
74293;SDS011;64044;59.904;10.738;2022-10-17T15:34:16;2.15;;;1.50;;
74293;SDS011;64044;59.904;10.738;2022-10-17T15:36:47;2.95;;;1.63;;
74293;SDS011;64044;59.904;10.738;2022-10-17T15:39:14;4.20;;;1.45;;
74293;SDS011;64044;59.904;10.738;2022-10-17T15:41:40;2.67;;;1.67;;
74293;SDS011;64044;59.904;10.738;2022-10-17T15:44:05;3.28;;;1.67;;
74293;SDS011;64044;59.904;10.738;2022-10-17T15:46:32;2.72;;;1.75;;
74293;SDS011;64044;59.904;10.738;2022-10-17T15:49:06;2.63;;;1.50;;
74293;SDS011;64044;59.904;10.738;2022-10-17T15:51:35;2.85;;;1.52;;
74293;SDS011;64044;59.904;10.738;2022-10-17T15:54:01;2.05;;;1.38;;
74293;SDS011;64044;59.904;10.738;2022-10-17T15:56:27;2.97;;;1.45;;
74293;SDS011;64044;59.904;10.738;2022-10-17T15:59:02;2.38;;;1.50;;
74293;SDS011;64044;59.904;10.738;2022-10-17T16:01:39;2.10;;;1.55;;
74293;SDS011;64044;59.904;10.738;2022-10-17T16:04:05;3.63;;;1.67;;
74293;SDS011;64044;59.904;10.738;2022-10-17T16:06:33;2.35;;;1.42;;
74293;SDS011;64044;59.904;10.738;2022-10-17T16:08:58;1.60;;;1.30;;
74293;SDS011;64044;59.904;10.738;2022-10-17T16:11:31;1.40;;;1.05;;
74293;SDS011;64044;59.904;10.738;2022-10-17T16:14:05;1.65;;;1.15;;
74293;SDS011;64044;59.904;10.738;2022-10-17T16:16:35;2.15;;;1.40;;
74293;SDS011;64044;59.904;10.738;2022-10-17T16:19:01;2.58;;;1.20;;
74293;SDS011;64044;59.904;10.738;2022-10-17T16:21:28;2.33;;;1.50;;
74293;SDS011;64044;59.904;10.738;2022-10-17T16:23:56;1.95;;;1.50;;
74293;SDS011;64044;59.904;10.738;2022-10-17T16:26:22;3.60;;;1.90;;
74293;SDS011;64044;59.904;10.738;2022-10-17T16:28:48;3.22;;;1.90;;
74293;SDS011;64044;59.904;10.738;2022-10-17T16:31:21;2.22;;;1.77;;
74293;SDS011;64044;59.904;10.738;2022-10-17T16:33:53;3.58;;;1.77;;
74293;SDS011;64044;59.904;10.738;2022-10-17T16:36:20;3.53;;;1.92;;
74293;SDS011;64044;59.904;10.738;2022-10-17T16:38:47;2.42;;;1.88;;
74293;SDS011;64044;59.904;10.738;2022-10-17T16:41:27;3.95;;;2.15;;
74293;SDS011;64044;59.904;10.738;2022-10-17T16:43:55;4.63;;;2.28;;
74293;SDS011;64044;59.904;10.738;2022-10-17T16:46:22;3.92;;;1.70;;
74293;SDS011;64044;59.904;10.738;2022-10-17T16:48:49;3.90;;;1.98;;
74293;SDS011;64044;59.904;10.738;2022-10-17T16:51:15;4.75;;;1.80;;
74293;SDS011;64044;59.904;10.738;2022-10-17T16:53:43;4.18;;;2.00;;
74293;SDS011;64044;59.904;10.738;2022-10-17T16:56:10;3.92;;;1.90;;
74293;SDS011;64044;59.904;10.738;2022-10-17T16:58:38;2.60;;;1.80;;
74293;SDS011;64044;59.904;10.738;2022-10-17T17:01:06;5.63;;;2.38;;
74293;SDS011;64044;59.904;10.738;2022-10-17T17:03:37;3.90;;;1.92;;
74293;SDS011;64044;59.904;10.738;2022-10-17T17:06:04;3.33;;;1.85;;
74293;SDS011;64044;59.904;10.738;2022-10-17T17:08:31;3.13;;;2.20;;
74293;SDS011;64044;59.904;10.738;2022-10-17T17:10:57;3.88;;;1.88;;
74293;SDS011;64044;59.904;10.738;2022-10-17T17:13:24;2.80;;;2.05;;
74293;SDS011;64044;59.904;10.738;2022-10-17T17:15:50;3.90;;;1.95;;
74293;SDS011;64044;59.904;10.738;2022-10-17T17:18:19;5.00;;;2.10;;
74293;SDS011;64044;59.904;10.738;2022-10-17T17:20:45;3.83;;;2.35;;
74293;SDS011;64044;59.904;10.738;2022-10-17T17:23:11;3.55;;;2.45;;
74293;SDS011;64044;59.904;10.738;2022-10-17T17:25:37;3.60;;;2.28;;